Time;durP1;ratioP1;P1;durP2;ratioP2;P2;SDS_P1;SDS_P2;PMS_P1;PMS_P2;Temp;Humidity;BMP_temperature;BMP_pressure;BME280_temperature;BME280_humidity;BME280_pressure;Samples;Min_cycle;Max_cycle;Signal;HPM_P1;HPM_P2
2020/12/23 00:01:29;;;;;;;23.07;18.67;;;;;;;;;;4988017;28;20221;-79
2020/12/23 00:03:56;;;;;;;22.73;17.27;;;;;;;;;;4995747;28;20536;-79
2020/12/23 00:06:21;;;;;;;22.10;15.53;;;;;;;;;;4995824;28;20200;-78
2020/12/23 00:08:46;;;;;;;30.17;21.70;;;;;;;;;;4995458;28;20170;-79
2020/12/23 00:11:14;;;;;;;24.70;18.17;;;;;;;;;;4995550;28;20528;-79
2020/12/23 00:13:39;;;;;;;29.67;21.53;;;;;;;;;;4995254;28;20621;-79
2020/12/23 00:16:06;;;;;;;22.00;16.77;;;;;;;;;;4995018;28;20216;-79
2020/12/23 00:18:31;;;;;;;25.93;19.87;;;;;;;;;;4993023;28;20200;-78
2020/12/23 00:20:56;;;;;;;24.43;18.23;;;;;;;;;;4995833;28;20628;-79
2020/12/23 00:23:22;;;;;;;25.23;19.33;;;;;;;;;;4996422;28;20178;-79
2020/12/23 00:25:47;;;;;;;28.03;20.00;;;;;;;;;;4977822;28;20236;-78
2020/12/23 00:28:13;;;;;;;22.30;15.70;;;;;;;;;;4996489;28;20176;-78
2020/12/23 00:30:39;;;;;;;27.43;18.53;;;;;;;;;;4996979;28;20670;-79
2020/12/23 00:33:05;;;;;;;22.00;17.57;;;;;;;;;;4996637;28;20257;-79
2020/12/23 00:35:30;;;;;;;20.70;16.10;;;;;;;;;;4996536;28;20253;-79
2020/12/23 00:37:55;;;;;;;22.00;18.07;;;;;;;;;;4996602;28;20614;-79
2020/12/23 00:40:21;;;;;;;23.47;17.03;;;;;;;;;;4996498;28;20166;-79
2020/12/23 00:42:46;;;;;;;19.00;15.30;;;;;;;;;;4996534;28;20177;-78
2020/12/23 00:45:12;;;;;;;21.93;16.47;;;;;;;;;;4996182;28;20176;-79
2020/12/23 00:47:37;;;;;;;22.80;17.03;;;;;;;;;;4996147;28;20644;-78
2020/12/23 00:50:02;;;;;;;24.67;17.57;;;;;;;;;;4996368;28;20228;-79
2020/12/23 00:52:28;;;;;;;22.90;17.60;;;;;;;;;;4996521;28;20224;-83
2020/12/23 00:54:53;;;;;;;25.03;19.40;;;;;;;;;;4996351;28;20580;-78
2020/12/23 00:57:18;;;;;;;27.23;17.07;;;;;;;;;;4995845;28;20292;-78
2020/12/23 00:59:44;;;;;;;19.27;14.40;;;;;;;;;;4995518;28;20181;-79
2020/12/23 01:02:09;;;;;;;21.73;17.20;;;;;;;;;;4995145;28;20190;-79
2020/12/23 01:04:34;;;;;;;18.23;15.43;;;;;;;;;;4996259;28;20170;-78
2020/12/23 01:07:00;;;;;;;21.10;16.87;;;;;;;;;;4995838;28;20185;-79
2020/12/23 01:09:25;;;;;;;18.73;15.97;;;;;;;;;;4996328;28;20625;-78
2020/12/23 01:11:51;;;;;;;21.50;16.20;;;;;;;;;;4996025;28;20520;-78
2020/12/23 01:14:17;;;;;;;21.73;16.63;;;;;;;;;;4994989;28;20173;-78
2020/12/23 01:16:43;;;;;;;22.17;16.77;;;;;;;;;;4996045;28;20210;-79
2020/12/23 01:19:08;;;;;;;28.63;20.17;;;;;;;;;;4995921;28;20698;-78
2020/12/23 01:21:34;;;;;;;20.30;17.23;;;;;;;;;;4995607;28;20185;-79
2020/12/23 01:23:59;;;;;;;23.03;18.77;;;;;;;;;;4996007;28;20174;-78
2020/12/23 01:26:24;;;;;;;19.53;15.60;;;;;;;;;;4995782;28;20532;-78
2020/12/23 01:28:50;;;;;;;28.47;20.60;;;;;;;;;;4995409;28;20174;-78
2020/12/23 01:31:15;;;;;;;20.37;16.60;;;;;;;;;;4995411;28;20177;-78
2020/12/23 01:33:41;;;;;;;17.80;15.00;;;;;;;;;;4995686;28;20224;-78
2020/12/23 01:36:06;;;;;;;21.77;16.07;;;;;;;;;;4995248;28;20612;-78
2020/12/23 01:38:31;;;;;;;21.63;17.53;;;;;;;;;;4995237;28;20228;-82
2020/12/23 01:40:56;;;;;;;23.07;18.40;;;;;;;;;;4995818;28;20170;-78
2020/12/23 01:43:22;;;;;;;25.13;19.47;;;;;;;;;;4995517;28;20194;-78
2020/12/23 01:45:48;;;;;;;32.43;22.20;;;;;;;;;;4995446;28;20257;-78
2020/12/23 01:48:16;;;;;;;23.73;17.57;;;;;;;;;;4995496;28;20577;-78
2020/12/23 01:50:42;;;;;;;23.37;17.07;;;;;;;;;;4995280;28;20174;-78
2020/12/23 01:53:07;;;;;;;27.10;20.20;;;;;;;;;;4995165;28;20257;-79
2020/12/23 01:55:33;;;;;;;21.47;16.57;;;;;;;;;;4995013;28;20184;-79
2020/12/23 01:57:58;;;;;;;24.60;19.07;;;;;;;;;;4995355;28;20176;-79
2020/12/23 02:00:24;;;;;;;21.57;17.73;;;;;;;;;;4994973;28;20233;-78
2020/12/23 02:02:50;;;;;;;24.23;17.20;;;;;;;;;;4995054;28;20205;-78
2020/12/23 02:05:18;;;;;;;23.33;16.83;;;;;;;;;;4995157;28;20635;-78
2020/12/23 02:07:43;;;;;;;20.87;15.40;;;;;;;;;;4994791;28;20535;-78
2020/12/23 02:10:09;;;;;;;22.20;16.17;;;;;;;;;;4994634;28;20170;-79
2020/12/23 02:12:34;;;;;;;24.83;16.67;;;;;;;;;;4994615;28;20201;-79
2020/12/23 02:15:10;;;;;;;20.90;16.03;;;;;;;;;;4994818;28;20177;-78
2020/12/23 02:17:35;;;;;;;16.90;14.53;;;;;;;;;;4994398;28;20197;-79
2020/12/23 02:20:00;;;;;;;13.73;11.70;;;;;;;;;;4994854;28;20174;-78
2020/12/23 02:22:27;;;;;;;10.33;8.67;;;;;;;;;;4994743;28;20178;-78
2020/12/23 02:24:53;;;;;;;8.47;7.50;;;;;;;;;;4994357;28;20186;-78
2020/12/23 02:27:19;;;;;;;7.33;6.40;;;;;;;;;;4994887;28;20201;-79
2020/12/23 02:29:44;;;;;;;7.03;6.10;;;;;;;;;;4994828;28;20212;-78
2020/12/23 02:32:10;;;;;;;6.43;5.83;;;;;;;;;;4994481;28;20202;-79
2020/12/23 02:34:36;;;;;;;5.80;5.30;;;;;;;;;;4994526;28;20174;-81
2020/12/23 02:37:01;;;;;;;6.20;5.60;;;;;;;;;;4994304;28;20206;-78
2020/12/23 02:39:26;;;;;;;6.50;5.83;;;;;;;;;;4994631;28;20170;-78
2020/12/23 02:41:58;;;;;;;6.80;5.63;;;;;;;;;;4994297;28;20181;-78
2020/12/23 02:44:24;;;;;;;6.07;5.47;;;;;;;;;;4994246;28;20572;-78
2020/12/23 02:46:59;;;;;;;5.90;5.30;;;;;;;;;;4994226;28;20173;-78
2020/12/23 02:49:25;;;;;;;6.37;5.73;;;;;;;;;;4994192;28;20197;-78
2020/12/23 02:51:51;;;;;;;7.30;6.17;;;;;;;;;;4994212;28;20204;-78
2020/12/23 02:54:16;;;;;;;7.13;6.30;;;;;;;;;;4994457;28;20170;-78
2020/12/23 02:56:42;;;;;;;7.07;6.37;;;;;;;;;;4993979;28;20198;-78
2020/12/23 02:59:07;;;;;;;8.00;6.87;;;;;;;;;;4994219;28;20170;-81
2020/12/23 03:01:34;;;;;;;7.33;6.53;;;;;;;;;;4994162;28;20225;-79
2020/12/23 03:03:59;;;;;;;7.47;6.67;;;;;;;;;;4994033;28;20198;-78
2020/12/23 03:06:24;;;;;;;7.27;6.47;;;;;;;;;;4993717;28;20185;-78
2020/12/23 03:08:50;;;;;;;8.30;6.27;;;;;;;;;;4993647;28;20176;-78
2020/12/23 03:11:15;;;;;;;9.37;6.83;;;;;;;;;;4993812;28;20177;-78
2020/12/23 03:13:40;;;;;;;9.60;7.10;;;;;;;;;;4993493;28;20174;-78
2020/12/23 03:16:06;;;;;;;9.27;6.87;;;;;;;;;;4993632;28;20202;-78
2020/12/23 03:18:31;;;;;;;8.70;6.47;;;;;;;;;;4993478;28;20212;-78
2020/12/23 03:20:56;;;;;;;7.43;6.47;;;;;;;;;;4993304;28;20173;-79
2020/12/23 03:23:22;;;;;;;9.30;7.27;;;;;;;;;;4993373;28;20205;-78
2020/12/23 03:25:47;;;;;;;8.03;6.40;;;;;;;;;;4993893;28;20181;-78
2020/12/23 03:28:12;;;;;;;8.33;6.47;;;;;;;;;;4993312;28;20177;-78
2020/12/23 03:30:38;;;;;;;7.63;6.37;;;;;;;;;;4993619;28;20174;-78
2020/12/23 03:33:03;;;;;;;6.87;5.93;;;;;;;;;;4993343;28;20170;-78
2020/12/23 03:35:28;;;;;;;6.43;5.77;;;;;;;;;;4993529;28;20173;-78
2020/12/23 03:37:54;;;;;;;6.63;6.00;;;;;;;;;;4993267;28;20226;-78
2020/12/23 03:40:19;;;;;;;8.27;5.67;;;;;;;;;;4993161;28;20180;-78
2020/12/23 03:42:44;;;;;;;8.80;5.60;;;;;;;;;;4993129;28;20198;-78
2020/12/23 03:45:10;;;;;;;6.57;5.70;;;;;;;;;;4993410;28;20184;-77
2020/12/23 03:47:35;;;;;;;6.73;5.70;;;;;;;;;;4993089;28;20169;-78
2020/12/23 03:50:00;;;;;;;7.00;5.47;;;;;;;;;;4993291;28;20205;-78
2020/12/23 03:52:26;;;;;;;9.10;5.90;;;;;;;;;;4993317;28;20667;-78
2020/12/23 03:54:51;;;;;;;6.67;5.20;;;;;;;;;;4993096;28;20587;-78
2020/12/23 03:57:16;;;;;;;7.33;5.13;;;;;;;;;;4992875;28;20201;-78
2020/12/23 03:59:42;;;;;;;6.53;5.00;;;;;;;;;;4993074;28;20260;-78
2020/12/23 04:02:07;;;;;;;6.70;4.80;;;;;;;;;;4993037;28;20206;-78
2020/12/23 04:04:32;;;;;;;7.60;5.67;;;;;;;;;;4993338;28;20660;-78
2020/12/23 04:06:58;;;;;;;6.87;5.17;;;;;;;;;;4991943;28;20587;-78
2020/12/23 04:09:23;;;;;;;5.97;4.87;;;;;;;;;;4993176;28;20173;-78
2020/12/23 04:11:48;;;;;;;6.27;4.97;;;;;;;;;;4992883;28;20169;-77
2020/12/23 04:14:14;;;;;;;7.83;4.90;;;;;;;;;;4992827;28;20219;-82
2020/12/23 04:16:39;;;;;;;7.57;5.03;;;;;;;;;;4993260;28;20248;-77
2020/12/23 04:19:04;;;;;;;5.23;4.60;;;;;;;;;;4992873;28;20170;-78
2020/12/23 04:21:30;;;;;;;6.57;5.17;;;;;;;;;;4992709;28;20177;-78
2020/12/23 04:23:55;;;;;;;10.30;6.77;;;;;;;;;;4993030;28;20233;-78
2020/12/23 04:26:20;;;;;;;28.13;15.20;;;;;;;;;;4993053;28;20174;-78
2020/12/23 04:28:46;;;;;;;26.30;15.70;;;;;;;;;;4992969;28;20174;-78
2020/12/23 04:31:11;;;;;;;15.73;9.73;;;;;;;;;;4993026;28;20176;-78
2020/12/23 04:33:36;;;;;;;14.93;11.07;;;;;;;;;;4992571;28;20198;-78
2020/12/23 04:36:02;;;;;;;8.70;6.63;;;;;;;;;;4992854;28;20209;-78
2020/12/23 04:38:27;;;;;;;6.80;5.63;;;;;;;;;;4992957;28;20627;-78
2020/12/23 04:40:52;;;;;;;7.27;5.27;;;;;;;;;;4992925;28;20202;-77
2020/12/23 04:43:19;;;;;;;8.63;5.57;;;;;;;;;;4992592;28;20178;-78
2020/12/23 04:45:45;;;;;;;6.60;5.43;;;;;;;;;;4993066;28;20224;-78
2020/12/23 04:48:12;;;;;;;8.67;5.83;;;;;;;;;;4993372;28;20182;-78
2020/12/23 04:50:38;;;;;;;6.73;5.27;;;;;;;;;;4996638;28;20177;-78
2020/12/23 04:53:04;;;;;;;7.03;4.90;;;;;;;;;;4996129;28;20232;-78
2020/12/23 04:55:29;;;;;;;10.03;6.10;;;;;;;;;;4996037;28;20170;-78
2020/12/23 04:57:58;;;;;;;7.53;5.33;;;;;;;;;;4996016;28;20606;-78
2020/12/23 05:00:25;;;;;;;5.93;5.10;;;;;;;;;;4995820;28;20608;-78
2020/12/23 05:02:51;;;;;;;7.40;5.20;;;;;;;;;;4995764;28;20225;-78
2020/12/23 05:05:17;;;;;;;8.90;6.83;;;;;;;;;;4995188;28;20205;-78
2020/12/23 05:07:42;;;;;;;9.57;7.13;;;;;;;;;;4995900;28;20696;-78
2020/12/23 05:10:08;;;;;;;11.27;7.23;;;;;;;;;;4995850;28;20178;-77
2020/12/23 05:12:33;;;;;;;10.17;6.67;;;;;;;;;;4994885;28;20621;-78
2020/12/23 05:15:03;;;;;;;9.70;6.70;;;;;;;;;;4995972;28;20244;-78
2020/12/23 05:17:31;;;;;;;10.77;6.50;;;;;;;;;;4995909;28;20284;-77
2020/12/23 05:19:57;;;;;;;8.93;6.50;;;;;;;;;;4996075;28;20201;-78
2020/12/23 05:22:25;;;;;;;8.90;6.00;;;;;;;;;;4995927;28;20204;-78
2020/12/23 05:24:52;;;;;;;9.83;6.23;;;;;;;;;;4995580;28;20261;-78
2020/12/23 05:27:18;;;;;;;7.37;5.90;;;;;;;;;;4996117;28;20618;-78
2020/12/23 05:29:46;;;;;;;11.73;8.07;;;;;;;;;;4995454;28;20173;-78
2020/12/23 05:32:12;;;;;;;9.87;6.83;;;;;;;;;;4995403;28;20177;-77
2020/12/23 05:34:37;;;;;;;8.50;6.60;;;;;;;;;;4995398;28;20166;-78
2020/12/23 05:37:03;;;;;;;12.77;7.57;;;;;;;;;;4995372;28;20212;-78
2020/12/23 05:39:29;;;;;;;12.27;7.83;;;;;;;;;;4995601;28;20185;-78
2020/12/23 05:41:55;;;;;;;10.67;7.63;;;;;;;;;;4995748;28;20184;-78
2020/12/23 05:44:20;;;;;;;18.63;10.20;;;;;;;;;;4995564;28;20166;-77
2020/12/23 05:46:46;;;;;;;17.33;9.80;;;;;;;;;;4995511;28;20260;-78
2020/12/23 05:49:13;;;;;;;19.03;11.37;;;;;;;;;;4995402;28;20197;-78
2020/12/23 05:51:39;;;;;;;57.30;28.63;;;;;;;;;;4995392;28;20174;-78
2020/12/23 05:54:07;;;;;;;39.50;21.30;;;;;;;;;;4995082;28;20178;-78
2020/12/23 05:56:36;;;;;;;18.10;12.27;;;;;;;;;;4994996;28;20336;-77
2020/12/23 05:59:02;;;;;;;55.50;28.27;;;;;;;;;;4977417;28;20217;-78
2020/12/23 06:01:32;;;;;;;45.07;24.73;;;;;;;;;;4995289;28;20226;-78
2020/12/23 06:04:01;;;;;;;56.87;29.80;;;;;;;;;;4995154;28;20202;-78
2020/12/23 06:06:28;;;;;;;69.20;33.53;;;;;;;;;;4994898;28;20532;-78
2020/12/23 06:08:55;;;;;;;59.87;29.77;;;;;;;;;;4994726;28;20617;-79
2020/12/23 06:11:29;;;;;;;105.63;44.30;;;;;;;;;;4994931;28;20193;-78
2020/12/23 06:14:06;;;;;;;122.83;50.77;;;;;;;;;;4995031;28;20252;-78
2020/12/23 06:16:33;;;;;;;91.53;40.53;;;;;;;;;;4994829;28;20674;-80
2020/12/23 06:18:59;;;;;;;74.27;35.93;;;;;;;;;;4995067;28;20181;-78
2020/12/23 06:21:26;;;;;;;42.03;21.00;;;;;;;;;;4995111;28;20196;-78
2020/12/23 06:23:59;;;;;;;38.13;20.57;;;;;;;;;;4994752;28;20177;-77
2020/12/23 06:26:28;;;;;;;191.97;73.10;;;;;;;;;;4994794;28;20162;-79
2020/12/23 06:28:56;;;;;;;103.17;51.97;;;;;;;;;;4994583;28;20205;-79
2020/12/23 06:31:22;;;;;;;67.90;41.50;;;;;;;;;;4994964;28;20178;-77
2020/12/23 06:33:47;;;;;;;56.80;34.90;;;;;;;;;;4994257;28;20174;-79
2020/12/23 06:36:12;;;;;;;144.00;67.10;;;;;;;;;;4994109;28;20668;-77
2020/12/23 06:38:38;;;;;;;175.93;79.07;;;;;;;;;;4994175;28;20534;-77
2020/12/23 06:41:03;;;;;;;118.50;60.77;;;;;;;;;;4994160;28;20188;-77
2020/12/23 06:43:47;;;;;;;97.07;53.57;;;;;;;;;;4994386;28;20202;-79
2020/12/23 06:46:12;;;;;;;76.30;37.63;;;;;;;;;;4994091;28;20174;-77
2020/12/23 06:48:38;;;;;;;83.43;39.67;;;;;;;;;;4993991;28;20180;-77
2020/12/23 06:51:03;;;;;;;60.67;32.23;;;;;;;;;;4994272;28;20309;-77
2020/12/23 06:53:35;;;;;;;41.47;22.87;;;;;;;;;;4994189;28;20166;-78
2020/12/23 06:56:01;;;;;;;26.80;16.53;;;;;;;;;;4993790;28;20205;-77
2020/12/23 06:58:39;;;;;;;22.90;15.50;;;;;;;;;;4993957;28;20174;-79
2020/12/23 07:01:14;;;;;;;20.70;13.63;;;;;;;;;;4993571;28;20313;-79
2020/12/23 07:03:39;;;;;;;16.83;11.50;;;;;;;;;;4994171;28;20205;-77
2020/12/23 07:06:25;;;;;;;15.50;11.00;;;;;;;;;;4993706;28;20651;-78
2020/12/23 07:08:50;;;;;;;12.27;9.83;;;;;;;;;;4993386;28;20177;-77
2020/12/23 07:11:16;;;;;;;30.23;16.27;;;;;;;;;;4993298;28;20260;-77
2020/12/23 07:13:41;;;;;;;38.17;21.67;;;;;;;;;;4993597;28;20205;-77
2020/12/23 07:16:09;;;;;;;43.43;22.60;;;;;;;;;;4993976;28;20208;-78
2020/12/23 07:18:34;;;;;;;20.03;13.00;;;;;;;;;;4993746;28;20207;-78
2020/12/23 07:21:05;;;;;;;16.60;11.97;;;;;;;;;;4993550;28;20503;-78
2020/12/23 07:23:32;;;;;;;15.20;10.67;;;;;;;;;;4976253;28;20182;-78
2020/12/23 07:25:59;;;;;;;14.47;10.60;;;;;;;;;;4993976;28;20617;-77
2020/12/23 07:28:36;;;;;;;13.37;10.30;;;;;;;;;;4993504;28;20209;-78
2020/12/23 07:31:02;;;;;;;14.47;10.20;;;;;;;;;;4993284;28;20217;-79
2020/12/23 07:33:28;;;;;;;13.23;9.77;;;;;;;;;;4993842;28;20178;-78
2020/12/23 07:35:55;;;;;;;29.13;16.40;;;;;;;;;;4993058;28;20659;-78
2020/12/23 07:38:22;;;;;;;29.20;16.27;;;;;;;;;;4993407;28;20233;-78
2020/12/23 07:40:47;;;;;;;16.87;10.07;;;;;;;;;;4993155;28;20196;-77
2020/12/23 07:43:14;;;;;;;18.40;11.87;;;;;;;;;;4991809;28;20640;-78
2020/12/23 07:45:40;;;;;;;23.27;13.67;;;;;;;;;;4992980;28;20177;-78
2020/12/23 07:48:13;;;;;;;30.00;17.03;;;;;;;;;;4993381;28;20180;-78
2020/12/23 07:50:42;;;;;;;19.90;12.57;;;;;;;;;;4993278;28;20170;-78
2020/12/23 07:53:15;;;;;;;18.30;11.20;;;;;;;;;;4993095;28;20181;-78
2020/12/23 07:55:41;;;;;;;14.43;10.27;;;;;;;;;;4992913;28;20205;-78
2020/12/23 07:58:07;;;;;;;16.73;11.03;;;;;;;;;;4993277;28;20528;-78
2020/12/23 08:00:32;;;;;;;17.73;14.13;;;;;;;;;;4993165;28;20233;-84
2020/12/23 08:02:58;;;;;;;16.43;13.43;;;;;;;;;;4993138;28;20244;-78
2020/12/23 08:05:23;;;;;;;13.77;11.40;;;;;;;;;;4992711;28;20189;-78
2020/12/23 08:07:50;;;;;;;11.33;9.07;;;;;;;;;;4993008;28;20675;-78
2020/12/23 08:10:17;;;;;;;9.90;8.07;;;;;;;;;;4993120;28;20178;-78
2020/12/23 08:12:50;;;;;;;18.10;10.90;;;;;;;;;;4992786;28;20221;-78
2020/12/23 08:15:15;;;;;;;18.37;12.10;;;;;;;;;;4992864;28;20158;-78
2020/12/23 08:17:41;;;;;;;12.73;9.30;;;;;;;;;;4992627;28;20248;-79
2020/12/23 08:20:08;;;;;;;12.03;9.50;;;;;;;;;;4993034;28;20663;-78
2020/12/23 08:22:34;;;;;;;15.83;10.97;;;;;;;;;;4994810;28;20188;-82
2020/12/23 08:25:03;;;;;;;15.93;11.90;;;;;;;;;;4997153;28;20523;-78
2020/12/23 08:27:29;;;;;;;15.70;11.50;;;;;;;;;;4996896;28;20180;-78
2020/12/23 08:29:54;;;;;;;11.73;9.57;;;;;;;;;;4996872;28;20182;-78
2020/12/23 08:32:23;;;;;;;11.37;8.40;;;;;;;;;;4996779;28;20499;-78
2020/12/23 08:34:51;;;;;;;10.57;7.73;;;;;;;;;;4996378;28;20202;-78
2020/12/23 08:37:22;;;;;;;10.77;7.27;;;;;;;;;;4996293;28;20656;-78
2020/12/23 08:39:57;;;;;;;8.90;7.10;;;;;;;;;;4996624;28;20523;-78
2020/12/23 08:42:23;;;;;;;10.67;7.90;;;;;;;;;;4996481;28;20169;-78
2020/12/23 08:44:49;;;;;;;11.03;7.70;;;;;;;;;;4995138;28;20178;-79
2020/12/23 08:47:19;;;;;;;11.70;10.00;;;;;;;;;;4994753;28;20174;-78
2020/12/23 08:49:46;;;;;;;13.20;8.80;;;;;;;;;;4985777;28;20190;-78
2020/12/23 08:52:18;;;;;;;13.80;8.57;;;;;;;;;;4982703;28;20187;-78
2020/12/23 08:54:48;;;;;;;9.63;7.33;;;;;;;;;;4976711;28;20178;-78
2020/12/23 08:57:14;;;;;;;10.57;7.50;;;;;;;;;;4957098;29;20657;-78
2020/12/23 08:59:40;;;;;;;9.40;6.93;;;;;;;;;;4967089;28;20182;-78
2020/12/23 09:02:09;;;;;;;9.10;6.47;;;;;;;;;;4994838;28;20268;-78
2020/12/23 09:04:37;;;;;;;9.20;6.40;;;;;;;;;;4994033;28;20233;-78
2020/12/23 09:07:03;;;;;;;13.20;7.83;;;;;;;;;;4996485;28;20178;-78
2020/12/23 09:09:28;;;;;;;12.13;7.17;;;;;;;;;;4995312;28;20177;-78
2020/12/23 09:11:55;;;;;;;9.07;6.40;;;;;;;;;;4995769;28;20265;-77
2020/12/23 09:14:21;;;;;;;9.27;6.53;;;;;;;;;;4995448;28;20187;-78
2020/12/23 09:17:03;;;;;;;12.47;5.77;;;;;;;;;;4995360;28;20205;-78
2020/12/23 09:19:43;;;;;;;9.67;6.57;;;;;;;;;;4995764;28;20173;-78
2020/12/23 09:22:10;;;;;;;9.77;5.77;;;;;;;;;;4995842;28;20265;-79
2020/12/23 09:24:35;;;;;;;9.97;6.20;;;;;;;;;;4996045;28;20174;-78
2020/12/23 09:27:00;;;;;;;9.43;6.30;;;;;;;;;;4995551;28;20185;-78
2020/12/23 09:29:40;;;;;;;9.70;6.83;;;;;;;;;;4993502;28;20197;-78
2020/12/23 09:32:05;;;;;;;12.83;9.20;;;;;;;;;;4995690;28;20212;-78
2020/12/23 09:34:31;;;;;;;9.90;5.60;;;;;;;;;;4994290;28;20178;-78
2020/12/23 09:36:56;;;;;;;8.00;5.17;;;;;;;;;;4977910;28;20205;-78
2020/12/23 09:39:22;;;;;;;8.70;5.63;;;;;;;;;;4994816;28;20188;-78
2020/12/23 09:42:00;;;;;;;12.77;7.63;;;;;;;;;;4995447;28;20525;-78
2020/12/23 09:44:25;;;;;;;19.80;9.80;;;;;;;;;;4995304;28;20182;-78
2020/12/23 09:46:51;;;;;;;17.23;13.47;;;;;;;;;;4995295;28;20506;-78
2020/12/23 09:49:16;;;;;;;17.27;12.03;;;;;;;;;;4994928;28;20253;-79
2020/12/23 09:51:45;;;;;;;15.00;9.80;;;;;;;;;;4994751;28;20170;-79
2020/12/23 09:54:10;;;;;;;16.23;10.23;;;;;;;;;;4994834;28;20621;-79
2020/12/23 09:56:36;;;;;;;13.50;9.17;;;;;;;;;;4994999;28;20205;-78
2020/12/23 09:59:01;;;;;;;14.73;9.77;;;;;;;;;;4994843;28;20174;-78
2020/12/23 10:01:26;;;;;;;11.53;8.10;;;;;;;;;;4993131;28;20274;-79
2020/12/23 10:03:52;;;;;;;12.37;8.30;;;;;;;;;;4992429;28;20656;-79
2020/12/23 10:06:17;;;;;;;14.00;7.50;;;;;;;;;;4991478;28;20520;-79
2020/12/23 10:08:42;;;;;;;11.10;7.70;;;;;;;;;;4992216;28;20189;-79
2020/12/23 10:11:08;;;;;;;14.47;9.70;;;;;;;;;;4991484;28;20284;-80
2020/12/23 10:13:34;;;;;;;13.53;8.70;;;;;;;;;;4992492;28;20213;-79
2020/12/23 10:15:59;;;;;;;13.40;9.00;;;;;;;;;;4992644;28;20274;-78
2020/12/23 10:18:24;;;;;;;18.00;9.60;;;;;;;;;;4993595;28;20565;-78
2020/12/23 10:20:50;;;;;;;10.63;9.13;;;;;;;;;;4994292;28;20162;-78
2020/12/23 10:23:15;;;;;;;13.10;9.53;;;;;;;;;;4994207;28;20166;-78
2020/12/23 10:25:41;;;;;;;10.20;7.70;;;;;;;;;;4994294;28;20174;-78
2020/12/23 10:28:06;;;;;;;12.03;8.27;;;;;;;;;;4994761;28;20224;-78
2020/12/23 10:30:31;;;;;;;11.73;8.00;;;;;;;;;;4994494;28;20174;-78
2020/12/23 10:32:57;;;;;;;12.90;11.50;;;;;;;;;;4993990;28;20166;-78
2020/12/23 10:35:22;;;;;;;11.93;8.50;;;;;;;;;;4994302;28;20792;-78
2020/12/23 10:37:47;;;;;;;13.13;9.07;;;;;;;;;;4993960;28;20190;-78
2020/12/23 10:40:13;;;;;;;12.33;9.07;;;;;;;;;;4994023;28;20170;-78
2020/12/23 10:42:38;;;;;;;13.53;9.80;;;;;;;;;;4994298;28;20162;-81
2020/12/23 10:45:06;;;;;;;13.53;9.77;;;;;;;;;;4993809;28;20166;-78
2020/12/23 10:47:33;;;;;;;12.83;9.77;;;;;;;;;;4993263;28;20185;-78
2020/12/23 10:49:58;;;;;;;12.70;9.83;;;;;;;;;;4994155;28;20280;-78
2020/12/23 10:52:23;;;;;;;11.27;8.33;;;;;;;;;;4993769;28;20301;-78
2020/12/23 10:54:49;;;;;;;13.17;9.20;;;;;;;;;;4993724;28;20173;-78
2020/12/23 10:57:14;;;;;;;11.87;8.80;;;;;;;;;;4993923;28;20194;-78
2020/12/23 10:59:40;;;;;;;12.47;8.90;;;;;;;;;;4993818;28;20680;-78
2020/12/23 11:02:05;;;;;;;11.63;8.80;;;;;;;;;;4993991;28;20575;-78
2020/12/23 11:04:31;;;;;;;11.23;9.47;;;;;;;;;;4993799;28;20189;-78
2020/12/23 11:06:56;;;;;;;13.23;9.20;;;;;;;;;;4993582;28;20178;-79
2020/12/23 11:09:22;;;;;;;12.20;8.57;;;;;;;;;;4993683;28;20181;-79
2020/12/23 11:11:54;;;;;;;13.07;9.90;;;;;;;;;;4993769;28;20228;-78
2020/12/23 11:14:20;;;;;;;14.10;10.03;;;;;;;;;;4993983;28;20178;-78
2020/12/23 11:16:46;;;;;;;12.50;9.17;;;;;;;;;;4993209;28;20277;-78
2020/12/23 11:19:11;;;;;;;12.50;9.50;;;;;;;;;;4993659;28;20185;-79
2020/12/23 11:21:37;;;;;;;14.40;10.33;;;;;;;;;;4993564;28;20174;-78
2020/12/23 11:24:02;;;;;;;12.90;10.90;;;;;;;;;;4993357;28;20621;-78
2020/12/23 11:26:27;;;;;;;12.40;9.20;;;;;;;;;;4993312;28;21056;-78
2020/12/23 11:28:53;;;;;;;10.97;8.80;;;;;;;;;;4993815;28;20177;-78
2020/12/23 11:31:18;;;;;;;12.60;9.23;;;;;;;;;;4993146;28;20173;-78
2020/12/23 11:33:44;;;;;;;12.37;9.53;;;;;;;;;;4993575;28;20186;-78
2020/12/23 11:36:09;;;;;;;19.23;14.53;;;;;;;;;;4993429;28;20256;-79
2020/12/23 11:38:35;;;;;;;15.93;11.20;;;;;;;;;;4993346;28;20285;-79
2020/12/23 11:41:00;;;;;;;12.23;9.67;;;;;;;;;;4975790;28;20186;-78
2020/12/23 11:43:25;;;;;;;18.47;12.70;;;;;;;;;;4992948;28;20200;-78
2020/12/23 11:45:51;;;;;;;16.13;11.07;;;;;;;;;;4993002;28;20517;-78
2020/12/23 11:48:16;;;;;;;14.73;12.07;;;;;;;;;;4992796;28;20260;-79
2020/12/23 11:50:42;;;;;;;10.17;9.03;;;;;;;;;;4993011;28;20169;-79
2020/12/23 11:53:07;;;;;;;12.83;8.73;;;;;;;;;;4993357;28;20170;-78
2020/12/23 11:55:32;;;;;;;13.63;9.20;;;;;;;;;;4993343;28;20177;-78
2020/12/23 11:57:58;;;;;;;11.13;8.27;;;;;;;;;;4992253;28;20213;-78
2020/12/23 12:00:23;;;;;;;12.93;9.93;;;;;;;;;;4992846;28;20232;-78
2020/12/23 12:02:49;;;;;;;12.63;9.40;;;;;;;;;;4993047;28;20212;-78
2020/12/23 12:05:14;;;;;;;11.87;8.87;;;;;;;;;;4992893;28;20166;-78
2020/12/23 12:07:40;;;;;;;13.33;8.60;;;;;;;;;;4993145;28;20184;-78
2020/12/23 12:10:05;;;;;;;15.47;10.33;;;;;;;;;;4992134;28;20240;-78
2020/12/23 12:12:31;;;;;;;19.03;10.50;;;;;;;;;;4975897;28;20174;-78
2020/12/23 12:14:57;;;;;;;10.50;8.47;;;;;;;;;;4992956;28;20204;-78
2020/12/23 12:17:22;;;;;;;13.73;9.07;;;;;;;;;;4992577;28;20212;-79
2020/12/23 12:19:47;;;;;;;11.23;8.03;;;;;;;;;;4992641;28;20177;-78
2020/12/23 12:22:13;;;;;;;9.87;7.40;;;;;;;;;;4992938;28;20178;-79
2020/12/23 12:24:38;;;;;;;10.57;7.53;;;;;;;;;;4992746;28;20201;-78
2020/12/23 12:27:03;;;;;;;10.50;8.50;;;;;;;;;;4992910;28;20635;-78
2020/12/23 12:29:29;;;;;;;11.47;7.63;;;;;;;;;;4992767;28;20510;-78
2020/12/23 12:31:54;;;;;;;16.43;8.50;;;;;;;;;;4993016;28;20205;-79
2020/12/23 12:34:19;;;;;;;15.43;8.70;;;;;;;;;;4992577;28;20166;-78
2020/12/23 12:36:45;;;;;;;11.57;8.43;;;;;;;;;;4992616;28;20205;-79
2020/12/23 12:39:10;;;;;;;14.63;8.80;;;;;;;;;;4990841;28;20185;-80
2020/12/23 12:41:35;;;;;;;15.67;9.33;;;;;;;;;;4992912;28;20216;-79
2020/12/23 12:44:01;;;;;;;13.97;8.77;;;;;;;;;;4992625;28;20182;-78
2020/12/23 12:46:26;;;;;;;13.87;9.67;;;;;;;;;;4992469;28;20208;-78
2020/12/23 12:48:52;;;;;;;18.50;13.03;;;;;;;;;;4992683;28;20171;-78
2020/12/23 12:51:26;;;;;;;13.43;9.37;;;;;;;;;;4992107;28;20182;-78
2020/12/23 12:53:52;;;;;;;14.30;8.53;;;;;;;;;;4990725;28;20170;-78
2020/12/23 12:56:30;;;;;;;10.00;7.70;;;;;;;;;;4973291;28;20202;-79
2020/12/23 12:58:56;;;;;;;13.10;8.33;;;;;;;;;;4990639;28;20178;-78
2020/12/23 13:01:22;;;;;;;12.17;8.77;;;;;;;;;;4989106;28;20241;-78
2020/12/23 13:03:48;;;;;;;12.90;9.20;;;;;;;;;;4991397;28;20528;-78
2020/12/23 13:06:21;;;;;;;14.80;9.17;;;;;;;;;;4974587;28;20197;-79
2020/12/23 13:08:46;;;;;;;16.03;9.97;;;;;;;;;;4992422;28;20241;-79
2020/12/23 13:11:17;;;;;;;24.00;13.70;;;;;;;;;;4995631;28;20256;-78
2020/12/23 13:13:42;;;;;;;27.47;17.70;;;;;;;;;;4997348;28;20158;-77
2020/12/23 13:16:10;;;;;;;33.20;17.93;;;;;;;;;;4997355;28;20228;-78
2020/12/23 13:18:35;;;;;;;27.73;16.60;;;;;;;;;;4997163;28;20213;-78
2020/12/23 13:21:01;;;;;;;20.20;12.70;;;;;;;;;;5010996;28;20589;-78
2020/12/23 13:23:26;;;;;;;22.13;15.17;;;;;;;;;;5003596;28;20177;-79
2020/12/23 13:25:51;;;;;;;25.50;15.30;;;;;;;;;;4995369;28;20166;-77
2020/12/23 13:28:17;;;;;;;22.77;15.63;;;;;;;;;;4995059;28;20256;-78
2020/12/23 13:30:42;;;;;;;26.70;16.07;;;;;;;;;;4995296;28;20177;-79
2020/12/23 13:33:07;;;;;;;21.20;13.90;;;;;;;;;;4994959;28;20629;-79
2020/12/23 13:35:33;;;;;;;26.83;15.67;;;;;;;;;;4997466;28;20317;-79
2020/12/23 13:37:58;;;;;;;25.43;15.20;;;;;;;;;;4994385;28;20280;-79
2020/12/23 13:40:23;;;;;;;28.93;19.40;;;;;;;;;;4994553;28;20178;-78
2020/12/23 13:42:49;;;;;;;27.40;18.07;;;;;;;;;;4994858;28;20288;-78
2020/12/23 13:45:14;;;;;;;28.60;18.70;;;;;;;;;;4999102;28;20178;-79
2020/12/23 13:47:40;;;;;;;24.17;16.03;;;;;;;;;;5007685;28;20185;-78
2020/12/23 13:50:09;;;;;;;23.67;15.30;;;;;;;;;;5003681;28;20256;-79
2020/12/23 13:52:34;;;;;;;23.90;14.87;;;;;;;;;;5012470;28;20578;-79
2020/12/23 13:55:00;;;;;;;18.87;14.23;;;;;;;;;;5009073;28;20174;-78
2020/12/23 13:57:25;;;;;;;18.57;13.63;;;;;;;;;;4994695;28;20695;-78
2020/12/23 13:59:50;;;;;;;19.23;13.10;;;;;;;;;;4994592;28;20225;-78
2020/12/23 14:02:16;;;;;;;26.20;16.20;;;;;;;;;;4994358;28;20158;-77
2020/12/23 14:04:41;;;;;;;28.27;17.63;;;;;;;;;;4993895;28;20197;-77
2020/12/23 14:07:06;;;;;;;32.73;20.67;;;;;;;;;;4994791;28;20680;-79
2020/12/23 14:09:32;;;;;;;34.73;22.93;;;;;;;;;;4994133;28;20177;-78
2020/12/23 14:11:57;;;;;;;44.10;24.73;;;;;;;;;;4994478;28;20220;-78
2020/12/23 14:14:22;;;;;;;41.93;29.80;;;;;;;;;;4994408;28;20228;-78
2020/12/23 14:16:48;;;;;;;45.13;29.23;;;;;;;;;;4993922;28;20286;-78
2020/12/23 14:19:13;;;;;;;39.60;25.20;;;;;;;;;;4991139;28;20181;-78
2020/12/23 14:21:39;;;;;;;37.50;24.10;;;;;;;;;;4994039;28;20324;-78